Locke, California
Current Conditions -  °F | °C
As of 10:58 AM on Saturday 20 Dec 2014 (Local Time) from KSUU Reporting Station
Haze Haze  
Wind Chill: 54°   Ceiling: 500
Heat Index: 54°   Visibility: 4mi
Dew Point: 51°   Wind: 7mph
Humidity: 90%   Direction: 140°SE
Pressure: 30.22"   Gusts: NA
Location:  38.2298°N, 121.579°W
Report Text: KSUU 201858Z 14006KT 4SM BR OVC005 12/11 A3022 RMK AO2A SLP240 P0001 T01240108 $
Loading
Personal Weather Stations






























Interactive Weather Map New forecast layout! Learn more

10-Day Weather Forecast

Advertisements
Track Severe Weather on mobile